createdAt,value
2022-08-12T00:00:06.210Z,18.48
2022-08-12T00:00:18.183Z,18.47
2022-08-12T00:00:26.203Z,18.45
2022-08-12T00:00:36.223Z,18.47
2022-08-12T00:00:46.971Z,18.46
2022-08-12T00:00:56.182Z,18.45
2022-08-12T00:01:08.155Z,18.46
2022-08-12T00:01:18.884Z,18.44
2022-08-12T00:02:02.952Z,18.39
2022-08-12T00:02:03.249Z,18.40
2022-08-12T00:02:03.956Z,18.38
2022-08-12T00:02:04.875Z,18.40
2022-08-12T00:02:09.532Z,18.37
2022-08-12T00:02:21.453Z,18.41
2022-08-12T00:02:31.442Z,18.40
2022-08-12T00:02:39.818Z,18.42
2022-08-12T00:02:51.505Z,18.43
2022-08-12T00:03:01.506Z,18.43
2022-08-12T00:03:09.659Z,18.44
2022-08-12T00:03:20.922Z,18.45
2022-08-12T00:03:29.595Z,18.43
2022-08-12T00:03:41.512Z,18.44
2022-08-12T00:03:51.444Z,18.43
2022-08-12T00:03:59.482Z,18.44
2022-08-12T00:04:11.445Z,18.45
2022-08-12T00:04:20.952Z,18.44
2022-08-12T00:04:29.502Z,18.43
2022-08-12T00:04:41.472Z,18.44
2022-08-12T00:04:49.502Z,18.43
2022-08-12T00:05:01.439Z,18.44
2022-08-12T00:05:09.474Z,18.42
2022-08-12T00:05:19.542Z,18.44
2022-08-12T00:05:29.473Z,18.43
2022-08-12T00:05:39.484Z,18.42
2022-08-12T00:06:04.438Z,18.36
2022-08-12T00:06:05.093Z,18.34
2022-08-12T00:06:10.913Z,18.32
2022-08-12T00:06:21.877Z,18.34
2022-08-12T00:06:31.874Z,18.34
2022-08-12T00:06:40.020Z,18.35
2022-08-12T00:06:50.051Z,18.36
2022-08-12T00:06:59.893Z,18.35
2022-08-12T00:07:11.874Z,18.34
2022-08-12T00:07:21.853Z,18.32
2022-08-12T00:07:31.863Z,18.32
2022-08-12T00:07:41.357Z,18.33
2022-08-12T00:07:51.865Z,18.33
2022-08-12T00:08:01.847Z,18.33
2022-08-12T00:08:09.895Z,18.33
2022-08-12T00:08:32.340Z,18.34
2022-08-12T00:08:36.814Z,18.28
2022-08-12T00:08:43.833Z,18.26
2022-08-12T00:08:54.314Z,18.28
2022-08-12T00:09:03.972Z,18.29
2022-08-12T00:09:12.184Z,18.30
2022-08-12T00:09:26.417Z,18.31
2022-08-12T00:09:32.026Z,18.26
2022-08-12T00:09:42.024Z,18.29
2022-08-12T00:09:53.995Z,18.29
2022-08-12T00:10:03.968Z,18.28
2022-08-12T00:10:13.455Z,18.28
2022-08-12T00:10:23.965Z,18.29
2022-08-12T00:10:33.975Z,18.28
2022-08-12T00:10:42.104Z,18.28
2022-08-12T00:10:53.935Z,18.29
2022-08-12T00:11:12.252Z,18.28
2022-08-12T00:11:13.622Z,18.24
2022-08-12T00:11:23.555Z,18.26
2022-08-12T00:11:33.620Z,18.25
2022-08-12T00:11:43.624Z,18.26
2022-08-12T00:11:53.555Z,18.26
2022-08-12T00:12:03.705Z,18.24
2022-08-12T00:12:13.635Z,18.23
2022-08-12T00:12:23.665Z,18.23
2022-08-12T00:12:33.525Z,18.21
2022-08-12T00:12:43.637Z,18.19
2022-08-12T00:12:53.667Z,18.16
2022-08-12T00:13:04.512Z,18.12
2022-08-12T00:13:13.645Z,18.10
2022-08-12T00:13:23.674Z,18.09
2022-08-12T00:13:33.620Z,18.08
2022-08-12T00:13:43.636Z,18.07
2022-08-12T00:13:53.515Z,18.06
2022-08-12T00:14:03.606Z,18.04
2022-08-12T00:14:13.646Z,18.03
2022-08-12T00:14:23.506Z,18.02
2022-08-12T00:14:35.487Z,18.01
2022-08-12T00:14:43.648Z,17.97
2022-08-12T00:14:53.514Z,17.98
2022-08-12T00:15:05.485Z,17.95
2022-08-12T00:15:15.456Z,17.88
2022-08-12T00:15:24.977Z,17.85
2022-08-12T00:15:35.476Z,17.83
2022-08-12T00:15:43.505Z,17.81
2022-08-12T00:15:53.515Z,17.82
2022-08-12T00:16:05.468Z,17.81
2022-08-12T00:16:13.506Z,17.79
2022-08-12T00:16:23.526Z,17.80
2022-08-12T00:16:35.477Z,17.79
2022-08-12T00:16:43.487Z,17.78
2022-08-12T00:16:55.490Z,17.79
2022-08-12T00:17:03.552Z,17.78
2022-08-12T00:17:14.372Z,17.79
2022-08-12T00:17:23.523Z,17.77
2022-08-12T00:17:35.457Z,17.77
2022-08-12T00:17:44.975Z,17.75
2022-08-12T00:17:55.458Z,17.75
2022-08-12T00:18:05.438Z,17.74
2022-08-12T00:18:14.964Z,17.70
2022-08-12T00:18:23.600Z,17.70
2022-08-12T00:18:35.457Z,17.72
2022-08-12T00:18:44.947Z,17.69
2022-08-12T00:18:55.458Z,17.69
2022-08-12T00:19:03.487Z,17.68
2022-08-12T00:19:15.447Z,17.68
2022-08-12T00:19:23.490Z,17.66
2022-08-12T00:19:34.391Z,17.67
2022-08-12T00:19:45.448Z,17.65
2022-08-12T00:19:55.457Z,17.64
2022-08-12T00:20:04.931Z,17.64
2022-08-12T00:20:15.428Z,17.65
2022-08-12T00:20:25.450Z,17.64
2022-08-12T00:20:35.066Z,17.60
2022-08-12T00:20:44.549Z,17.64
2022-08-12T00:20:56.517Z,17.64
2022-08-12T00:21:04.538Z,17.64
2022-08-12T00:21:14.558Z,17.65
2022-08-12T00:21:26.686Z,17.67
2022-08-12T00:21:36.529Z,17.65
2022-08-12T00:21:46.494Z,17.66
2022-08-12T00:21:56.499Z,17.67
2022-08-12T00:22:05.429Z,17.68
2022-08-12T00:22:16.488Z,17.70
2022-08-12T00:22:26.478Z,17.69
2022-08-12T00:22:34.616Z,17.70
2022-08-12T00:22:46.479Z,17.72
2022-08-12T00:22:58.988Z,17.67
2022-08-12T00:23:08.009Z,17.67
2022-08-12T00:23:18.029Z,17.70
2022-08-12T00:23:26.815Z,17.72
2022-08-12T00:23:36.239Z,17.74
2022-08-12T00:23:46.069Z,17.74
2022-08-12T00:23:56.820Z,17.73
2022-08-12T00:24:06.049Z,17.74
2022-08-12T00:24:16.097Z,17.75
2022-08-12T00:24:26.827Z,17.75
2022-08-12T00:24:36.987Z,17.74
2022-08-12T00:24:47.528Z,17.75
2022-08-12T00:24:56.135Z,17.76
2022-08-12T00:25:06.043Z,17.77
2022-08-12T00:25:16.079Z,17.77
2022-08-12T00:26:18.968Z,17.77
2022-08-12T00:26:18.968Z,17.72
2022-08-12T00:26:20.145Z,17.72
2022-08-12T00:26:21.452Z,17.71
2022-08-12T00:26:23.018Z,17.71
2022-08-12T00:26:23.183Z,17.71
2022-08-12T00:26:31.711Z,17.71
2022-08-12T00:26:41.734Z,17.74
2022-08-12T00:26:51.210Z,17.77
2022-08-12T00:27:01.737Z,17.77
2022-08-12T00:27:09.771Z,17.79
2022-08-12T00:27:19.780Z,17.80
2022-08-12T00:27:43.628Z,17.75
2022-08-12T00:27:44.059Z,17.80
2022-08-12T00:27:53.271Z,17.74
2022-08-12T00:28:03.251Z,17.77
2022-08-12T00:28:11.311Z,17.79
2022-08-12T00:28:21.930Z,17.81
2022-08-12T00:28:31.311Z,17.80
2022-08-12T00:28:41.390Z,17.82
2022-08-12T00:28:53.264Z,17.81
2022-08-12T00:29:03.289Z,17.79
2022-08-12T00:29:13.243Z,17.81
2022-08-12T00:29:22.747Z,17.82
2022-08-12T00:29:31.289Z,17.82
2022-08-12T00:29:45.880Z,17.84
2022-08-12T00:29:53.052Z,17.79
2022-08-12T00:30:01.610Z,17.82
2022-08-12T00:30:12.601Z,17.84
2022-08-12T00:30:23.571Z,17.83
2022-08-12T00:30:33.551Z,17.83
2022-08-12T00:30:43.564Z,17.83
2022-08-12T00:30:51.583Z,17.84
2022-08-12T00:31:02.522Z,17.85
2022-08-12T00:31:13.592Z,17.84
2022-08-12T00:31:21.583Z,17.83
2022-08-12T00:31:31.621Z,17.85
2022-08-12T00:31:41.601Z,17.84
2022-08-12T00:31:53.552Z,17.83
2022-08-12T00:32:01.790Z,17.81
2022-08-12T00:32:13.551Z,17.82
2022-08-12T00:32:35.301Z,17.75
2022-08-12T00:32:54.525Z,17.72
2022-08-12T00:32:54.926Z,17.70
2022-08-12T00:32:57.103Z,17.68
2022-08-12T00:33:05.281Z,17.66
2022-08-12T00:33:14.731Z,17.67
2022-08-12T00:33:25.591Z,17.66
2022-08-12T00:33:38.681Z,17.60
2022-08-12T00:33:52.630Z,17.57
2022-08-12T00:33:57.822Z,17.56
2022-08-12T00:34:07.781Z,17.54
2022-08-12T00:34:17.787Z,17.56
2022-08-12T00:34:25.827Z,17.57
2022-08-12T00:34:37.793Z,17.58
2022-08-12T00:34:45.828Z,17.56
2022-08-12T00:34:55.847Z,17.54
2022-08-12T00:35:08.806Z,17.57
2022-08-12T00:35:15.864Z,17.54
2022-08-12T00:35:32.147Z,17.57
2022-08-12T00:35:37.393Z,17.53
2022-08-12T00:35:47.393Z,17.56
2022-08-12T00:35:58.200Z,17.60
2022-08-12T00:36:09.323Z,17.58
2022-08-12T00:36:35.223Z,17.54
2022-08-12T00:36:36.121Z,17.55
2022-08-12T00:36:41.964Z,17.54
2022-08-12T00:36:51.913Z,17.52
2022-08-12T00:37:04.642Z,17.56
2022-08-12T00:37:13.271Z,17.54
2022-08-12T00:37:21.935Z,17.53
2022-08-12T00:37:31.913Z,17.55
2022-08-12T00:37:40.855Z,17.57
2022-08-12T00:37:51.924Z,17.58
2022-08-12T00:37:59.973Z,17.58
2022-08-12T00:38:10.806Z,17.59
2022-08-12T00:38:21.927Z,17.59
2022-08-12T00:38:30.952Z,17.59
2022-08-12T00:38:39.956Z,17.60
2022-08-12T00:38:51.923Z,17.61
2022-08-12T00:39:01.414Z,17.57
2022-08-12T00:39:10.781Z,17.58
2022-08-12T00:39:20.169Z,17.60
2022-08-12T00:39:31.940Z,17.61
2022-08-12T00:39:40.168Z,17.61
2022-08-12T00:39:51.946Z,17.62
2022-08-12T00:40:01.898Z,17.61
2022-08-12T00:40:11.645Z,17.57
2022-08-12T00:40:19.954Z,17.60
2022-08-12T00:40:31.910Z,17.61
2022-08-12T00:40:39.944Z,17.60
2022-08-12T00:40:50.805Z,17.61
2022-08-12T00:40:59.971Z,17.60
2022-08-12T00:41:09.944Z,17.61
2022-08-12T00:41:21.896Z,17.61
2022-08-12T00:41:29.953Z,17.60
2022-08-12T00:41:39.965Z,17.61
2022-08-12T00:41:49.985Z,17.59
2022-08-12T00:42:01.905Z,17.59
2022-08-12T00:42:11.926Z,17.58
2022-08-12T00:42:21.896Z,17.58
2022-08-12T00:42:31.876Z,17.58
2022-08-12T00:42:40.037Z,17.58
2022-08-12T00:42:49.939Z,17.60
2022-08-12T00:42:59.964Z,17.59
2022-08-12T00:43:11.875Z,17.60
2022-08-12T00:43:19.917Z,17.58
2022-08-12T00:43:29.994Z,17.60
2022-08-12T00:43:40.271Z,17.60
2022-08-12T00:43:50.775Z,17.59
2022-08-12T00:44:01.832Z,17.55
2022-08-12T00:44:10.615Z,17.57
2022-08-12T00:44:22.586Z,17.59
2022-08-12T00:44:31.475Z,17.53
2022-08-12T00:44:42.655Z,17.56
2022-08-12T00:44:50.815Z,17.52
2022-08-12T00:45:02.565Z,17.55
2022-08-12T00:45:12.545Z,17.54
2022-08-12T00:45:22.098Z,17.57
2022-08-12T00:45:32.550Z,17.57
2022-08-12T00:45:40.598Z,17.56
2022-08-12T00:45:52.592Z,17.57
2022-08-12T00:46:00.587Z,17.55
2022-08-12T00:46:10.895Z,17.56
2022-08-12T00:46:20.604Z,17.55
2022-08-12T00:46:30.576Z,17.55
2022-08-12T00:46:42.546Z,17.56
2022-08-12T00:46:50.928Z,17.56
2022-08-12T00:47:00.806Z,17.58
2022-08-12T00:47:24.762Z,17.57
2022-08-12T00:47:25.497Z,17.53
2022-08-12T00:47:32.526Z,17.53
2022-08-12T00:47:40.593Z,17.57
2022-08-12T00:47:50.603Z,17.59
2022-08-12T00:48:02.607Z,17.60
2022-08-12T00:48:12.028Z,17.60
2022-08-12T00:48:22.544Z,17.60
2022-08-12T00:48:30.567Z,17.61
2022-08-12T00:48:42.566Z,17.62
2022-08-12T00:48:52.537Z,17.62
2022-08-12T00:49:02.532Z,17.63
2022-08-12T00:49:10.567Z,17.64
2022-08-12T00:49:21.527Z,17.65
2022-08-12T00:49:32.527Z,17.65
2022-08-12T00:49:41.017Z,17.65
2022-08-12T00:49:51.047Z,17.66
2022-08-12T00:50:00.617Z,17.66
2022-08-12T00:50:10.836Z,17.67
2022-08-12T00:50:22.517Z,17.67
2022-08-12T00:50:32.506Z,17.67
2022-08-12T00:50:40.559Z,17.68
2022-08-12T00:50:50.658Z,17.69
2022-08-12T00:51:02.518Z,17.68
2022-08-12T00:51:10.936Z,17.66
2022-08-12T00:51:21.166Z,17.67
2022-08-12T00:51:31.198Z,17.67
2022-08-12T00:51:41.137Z,17.68
2022-08-12T00:51:51.167Z,17.69
2022-08-12T00:52:00.610Z,17.68
2022-08-12T00:52:11.140Z,17.70
2022-08-12T00:52:21.194Z,17.69
2022-08-12T00:52:32.554Z,17.69
2022-08-12T00:52:41.433Z,17.67
2022-08-12T00:52:51.179Z,17.68
2022-08-12T00:53:01.214Z,17.67
2022-08-12T00:53:10.606Z,17.68
2022-08-12T00:53:22.558Z,17.68
2022-08-12T00:53:30.916Z,17.67
2022-08-12T00:53:41.257Z,17.68
2022-08-12T00:53:51.287Z,17.67
2022-08-12T00:54:01.318Z,17.68
2022-08-12T00:54:10.568Z,17.68
2022-08-12T00:54:22.548Z,17.68
2022-08-12T00:54:32.180Z,17.67
2022-08-12T00:54:41.259Z,17.67
2022-08-12T00:54:50.568Z,17.69
2022-08-12T00:55:01.330Z,17.68
2022-08-12T00:55:11.366Z,17.68
2022-08-12T00:55:21.303Z,17.68
2022-08-12T00:55:31.450Z,17.68
2022-08-12T00:55:40.598Z,17.68
2022-08-12T00:55:51.406Z,17.69
2022-08-12T00:56:00.621Z,17.69
2022-08-12T00:56:11.369Z,17.69
2022-08-12T00:56:21.410Z,17.68
2022-08-12T00:56:30.549Z,17.68
2022-08-12T00:56:41.388Z,17.67
2022-08-12T00:56:51.409Z,17.66
2022-08-12T00:57:00.558Z,17.66
2022-08-12T00:57:11.378Z,17.66
2022-08-12T00:57:21.409Z,17.66
2022-08-12T00:57:30.549Z,17.64
2022-08-12T00:57:40.569Z,17.65
2022-08-12T00:57:50.631Z,17.65
2022-08-12T00:58:00.643Z,17.64
2022-08-12T00:58:11.488Z,17.64
2022-08-12T00:58:21.116Z,17.62
2022-08-12T00:58:30.561Z,17.63
2022-08-12T00:58:41.080Z,17.62
2022-08-12T00:58:50.562Z,17.62
2022-08-12T00:59:00.573Z,17.61
2022-08-12T00:59:10.578Z,17.61
2022-08-12T00:59:22.501Z,17.60
2022-08-12T00:59:30.550Z,17.58
2022-08-12T00:59:40.587Z,17.59
2022-08-12T00:59:50.549Z,17.58
2022-08-12T01:00:00.592Z,17.58
2022-08-12T01:00:10.581Z,17.56
2022-08-12T01:00:20.554Z,17.55
2022-08-12T01:00:32.507Z,17.55
2022-08-12T01:00:42.519Z,17.52
2022-08-12T01:00:52.537Z,17.51
2022-08-12T01:01:02.536Z,17.51
2022-08-12T01:01:10.620Z,17.50
2022-08-12T01:01:22.600Z,17.51
2022-08-12T01:02:00.915Z,17.43
2022-08-12T01:02:02.471Z,17.49
2022-08-12T01:02:10.313Z,17.46
2022-08-12T01:02:11.412Z,17.43
2022-08-12T01:02:14.409Z,17.43
2022-08-12T01:02:24.241Z,17.46
2022-08-12T01:02:36.215Z,17.47
2022-08-12T01:02:46.192Z,17.47
2022-08-12T01:02:56.181Z,17.46
2022-08-12T01:03:06.204Z,17.47
2022-08-12T01:03:16.181Z,17.47
2022-08-12T01:03:26.192Z,17.47
2022-08-12T01:03:34.229Z,17.47
2022-08-12T01:03:46.216Z,17.48
2022-08-12T01:03:55.003Z,17.46
2022-08-12T01:04:04.240Z,17.47
2022-08-12T01:04:16.250Z,17.46
2022-08-12T01:04:24.377Z,17.45
2022-08-12T01:04:34.677Z,17.45
2022-08-12T01:04:45.932Z,17.46
2022-08-12T01:04:56.562Z,17.45
2022-08-12T01:05:04.621Z,17.44
2022-08-12T01:05:14.629Z,17.45
2022-08-12T01:05:26.582Z,17.44
2022-08-12T01:05:34.612Z,17.43
2022-08-12T01:05:45.599Z,17.44
2022-08-12T01:05:56.553Z,17.44
2022-08-12T01:06:04.611Z,17.43
2022-08-12T01:06:16.615Z,17.44
2022-08-12T01:06:26.542Z,17.43
2022-08-12T01:06:34.703Z,17.43
2022-08-12T01:06:46.573Z,17.44
2022-08-12T01:06:57.862Z,17.38
2022-08-12T01:07:07.849Z,17.40
2022-08-12T01:07:17.853Z,17.41
2022-08-12T01:07:25.953Z,17.41
2022-08-12T01:07:35.928Z,17.43
2022-08-12T01:07:45.945Z,17.41
2022-08-12T01:07:55.921Z,17.41
2022-08-12T01:08:07.882Z,17.41
2022-08-12T01:08:17.846Z,17.39
2022-08-12T01:08:27.348Z,17.39
2022-08-12T01:08:37.838Z,17.40
2022-08-12T01:08:45.892Z,17.40
2022-08-12T01:08:57.920Z,17.41
2022-08-12T01:09:05.969Z,17.39
2022-08-12T01:09:15.900Z,17.40
2022-08-12T01:09:27.854Z,17.39
2022-08-12T01:09:37.842Z,17.37
2022-08-12T01:09:47.843Z,17.37
2022-08-12T01:09:57.836Z,17.37
2022-08-12T01:10:07.837Z,17.37
2022-08-12T01:10:17.867Z,17.37
2022-08-12T01:10:29.648Z,17.37
2022-08-12T01:10:37.863Z,17.33
2022-08-12T01:10:45.886Z,17.34
2022-08-12T01:10:55.898Z,17.36
2022-08-12T01:11:05.893Z,17.36
2022-08-12T01:11:17.835Z,17.35
2022-08-12T01:11:25.860Z,17.35
2022-08-12T01:11:35.872Z,17.36
2022-08-12T01:11:47.848Z,17.35
2022-08-12T01:11:57.837Z,17.34
2022-08-12T01:12:05.874Z,17.34
2022-08-12T01:12:15.964Z,17.34
2022-08-12T01:12:25.875Z,17.34
2022-08-12T01:12:36.735Z,17.33
2022-08-12T01:12:45.886Z,17.32
2022-08-12T01:13:18.231Z,17.27
2022-08-12T01:13:18.536Z,17.32
2022-08-12T01:13:19.229Z,17.25
2022-08-12T01:13:29.364Z,17.24
2022-08-12T01:13:37.415Z,17.26
2022-08-12T01:13:47.607Z,17.28
2022-08-12T01:13:57.404Z,17.27
2022-08-12T01:14:09.366Z,17.27
2022-08-12T01:14:17.414Z,17.25
2022-08-12T01:14:27.414Z,17.27
2022-08-12T01:14:38.891Z,17.23
2022-08-12T01:14:49.356Z,17.24
2022-08-12T01:14:59.364Z,17.24
2022-08-12T01:15:07.414Z,17.25
2022-08-12T01:15:18.298Z,17.25
2022-08-12T01:15:29.365Z,17.23
2022-08-12T01:15:39.366Z,17.23
2022-08-12T01:15:47.409Z,17.23
2022-08-12T01:15:58.209Z,17.24
2022-08-12T01:16:09.405Z,17.23
2022-08-12T01:16:19.356Z,17.21
2022-08-12T01:16:29.395Z,17.21
2022-08-12T01:16:37.397Z,17.21
2022-08-12T01:16:47.416Z,17.22
2022-08-12T01:16:57.416Z,17.20
2022-08-12T01:17:09.345Z,17.19
2022-08-12T01:17:19.347Z,17.16
2022-08-12T01:17:29.345Z,17.15
2022-08-12T01:17:39.336Z,17.14
2022-08-12T01:17:49.325Z,17.12
2022-08-12T01:17:59.345Z,17.11
2022-08-12T01:18:08.856Z,17.06
2022-08-12T01:18:17.388Z,17.07
2022-08-12T01:18:27.411Z,17.09
2022-08-12T01:18:37.395Z,17.08
2022-08-12T01:18:49.383Z,17.08
2022-08-12T01:18:57.466Z,17.06
2022-08-12T01:19:07.386Z,17.07
2022-08-12T01:19:19.346Z,17.07
2022-08-12T01:19:27.365Z,17.03
2022-08-12T01:19:37.396Z,17.05
2022-08-12T01:19:47.412Z,17.05
2022-08-12T01:19:57.396Z,17.07
2022-08-12T01:20:09.327Z,17.07
2022-08-12T01:20:19.336Z,17.04
2022-08-12T01:20:29.307Z,17.05
2022-08-12T01:20:37.375Z,17.05
2022-08-12T01:20:49.331Z,17.07
2022-08-12T01:20:59.307Z,17.04
2022-08-12T01:21:07.548Z,17.05
2022-08-12T01:21:19.312Z,17.06
2022-08-12T01:21:29.310Z,17.04
2022-08-12T01:21:39.327Z,17.05
2022-08-12T01:21:49.306Z,17.05
2022-08-12T01:21:57.357Z,17.05
2022-08-12T01:22:09.316Z,17.05
2022-08-12T01:22:18.646Z,17.04
2022-08-12T01:22:27.630Z,17.04
2022-08-12T01:22:39.480Z,17.04
2022-08-12T01:22:49.311Z,17.04
2022-08-12T01:22:57.348Z,17.03
2022-08-12T01:23:07.664Z,17.02
2022-08-12T01:23:17.337Z,17.01
2022-08-12T01:23:29.348Z,17.00
2022-08-12T01:23:37.360Z,16.99
2022-08-12T01:23:47.350Z,17.01
2022-08-12T01:23:59.301Z,17.00
2022-08-12T01:24:28.167Z,16.95
2022-08-12T01:24:29.619Z,16.93
2022-08-12T01:24:31.976Z,16.93
2022-08-12T01:24:40.548Z,16.95
2022-08-12T01:24:50.425Z,16.97
2022-08-12T01:25:00.720Z,16.98
2022-08-12T01:25:10.779Z,16.97
2022-08-12T01:25:20.777Z,16.97
2022-08-12T01:25:30.419Z,16.97
2022-08-12T01:25:41.585Z,16.97
2022-08-12T01:25:56.130Z,16.91
2022-08-12T01:26:01.418Z,16.90
2022-08-12T01:26:10.859Z,16.93
2022-08-12T01:26:20.789Z,16.94
2022-08-12T01:26:30.818Z,16.94
2022-08-12T01:26:40.408Z,16.93
2022-08-12T01:26:50.447Z,16.93
2022-08-12T01:27:00.828Z,16.93
2022-08-12T01:27:10.403Z,16.91
2022-08-12T01:27:20.440Z,16.91
2022-08-12T01:27:30.629Z,16.90
2022-08-12T01:27:40.442Z,16.89
2022-08-12T01:27:50.425Z,16.88
2022-08-12T01:28:01.108Z,16.87
2022-08-12T01:28:10.389Z,16.85
2022-08-12T01:28:22.369Z,16.85
2022-08-12T01:28:30.409Z,16.81
2022-08-12T01:28:40.428Z,16.82
2022-08-12T01:28:50.487Z,16.80
2022-08-12T01:29:02.370Z,16.79
2022-08-12T01:29:10.403Z,16.76
2022-08-12T01:29:22.368Z,16.76
2022-08-12T01:29:33.271Z,16.73
2022-08-12T01:29:40.410Z,16.69
2022-08-12T01:29:50.419Z,16.70
2022-08-12T01:30:02.403Z,16.70
2022-08-12T01:30:12.330Z,16.67
2022-08-12T01:30:22.368Z,16.66
2022-08-12T01:30:30.379Z,16.65
2022-08-12T01:30:40.409Z,16.65
2022-08-12T01:30:52.358Z,16.65
2022-08-12T01:31:02.428Z,16.64
2022-08-12T01:31:16.240Z,16.65
2022-08-12T01:31:22.090Z,16.61
2022-08-12T01:31:33.124Z,16.63
2022-08-12T01:31:43.108Z,16.64
2022-08-12T01:31:53.069Z,16.64
2022-08-12T01:32:02.598Z,16.64
2022-08-12T01:32:11.149Z,16.64
2022-08-12T01:32:23.113Z,16.65
2022-08-12T01:32:33.090Z,16.64
2022-08-12T01:32:41.337Z,16.65
2022-08-12T01:32:51.961Z,16.65
2022-08-12T01:33:03.111Z,16.64
2022-08-12T01:33:11.130Z,16.63
2022-08-12T01:33:23.099Z,16.65
2022-08-12T01:33:31.119Z,16.63
2022-08-12T01:33:41.141Z,16.65
2022-08-12T01:33:51.160Z,16.63
2022-08-12T01:34:01.143Z,16.64
2022-08-12T01:34:35.324Z,16.59
2022-08-12T01:34:36.550Z,16.58
2022-08-12T01:34:36.568Z,16.64
2022-08-12T01:34:44.231Z,16.57
2022-08-12T01:34:56.191Z,16.60
2022-08-12T01:35:04.231Z,16.62
2022-08-12T01:35:14.230Z,16.64
2022-08-12T01:35:24.260Z,16.65
2022-08-12T01:35:34.269Z,16.66
2022-08-12T01:35:44.230Z,16.65
2022-08-12T01:36:07.699Z,16.62
2022-08-12T01:36:08.459Z,16.62
2022-08-12T01:36:15.661Z,16.61
2022-08-12T01:36:26.174Z,16.66
2022-08-12T01:36:34.211Z,16.67
2022-08-12T01:36:46.177Z,16.69
2022-08-12T01:36:55.672Z,16.69
2022-08-12T01:37:04.221Z,16.71
2022-08-12T01:37:16.181Z,16.73
2022-08-12T01:37:26.154Z,16.72
2022-08-12T01:37:36.151Z,16.73
2022-08-12T01:37:46.151Z,16.74
2022-08-12T01:37:54.249Z,16.74
2022-08-12T01:38:06.131Z,16.76
2022-08-12T01:38:15.641Z,16.75
2022-08-12T01:38:30.027Z,16.75
2022-08-12T01:38:34.231Z,16.72
2022-08-12T01:38:44.224Z,16.75
2022-08-12T01:38:54.969Z,16.76
2022-08-12T01:39:04.212Z,16.75
2022-08-12T01:39:16.166Z,16.76
2022-08-12T01:39:24.243Z,16.75
2022-08-12T01:39:34.244Z,16.77
2022-08-12T01:40:31.275Z,16.69
2022-08-12T01:40:34.313Z,16.71
2022-08-12T01:40:34.589Z,16.71
2022-08-12T01:40:36.099Z,16.70
2022-08-12T01:40:36.732Z,16.76
2022-08-12T01:40:38.362Z,16.69
2022-08-12T01:40:48.496Z,16.68
2022-08-12T01:40:58.498Z,16.72
2022-08-12T01:41:08.428Z,16.73
2022-08-12T01:41:18.422Z,16.74
2022-08-12T01:41:27.032Z,16.75
2022-08-12T01:41:38.435Z,16.77
2022-08-12T01:41:51.497Z,16.76
2022-08-12T01:41:58.773Z,16.73
2022-08-12T01:42:08.012Z,16.75
2022-08-12T01:42:20.024Z,16.76
2022-08-12T01:42:30.012Z,16.76
2022-08-12T01:42:39.659Z,16.77
2022-08-12T01:42:48.031Z,16.77
2022-08-12T01:42:58.010Z,16.79
2022-08-12T01:43:08.933Z,16.78
2022-08-12T01:43:18.025Z,16.77
2022-08-12T01:43:28.582Z,16.78
2022-08-12T01:43:37.980Z,16.77
2022-08-12T01:43:48.003Z,16.78
2022-08-12T01:43:58.004Z,16.77
2022-08-12T01:44:09.967Z,16.77
2022-08-12T01:44:20.697Z,16.75
2022-08-12T01:44:29.943Z,16.72
2022-08-12T01:44:37.983Z,16.74
2022-08-12T01:44:48.766Z,16.76
2022-08-12T01:44:58.014Z,16.76
2022-08-12T01:45:08.003Z,16.76
2022-08-12T01:45:18.975Z,16.76
2022-08-12T01:45:29.987Z,16.76
2022-08-12T01:45:43.726Z,16.73
2022-08-12T01:45:54.516Z,16.71
2022-08-12T01:46:01.539Z,16.70
2022-08-12T01:46:10.784Z,16.73
2022-08-12T01:46:20.734Z,16.75
2022-08-12T01:46:30.034Z,16.76
2022-08-12T01:46:41.984Z,16.76
2022-08-12T01:46:50.047Z,16.75
2022-08-12T01:47:02.007Z,16.78
2022-08-12T01:47:11.485Z,16.75
2022-08-12T01:47:21.989Z,16.76
2022-08-12T01:47:30.864Z,16.75
2022-08-12T01:47:40.099Z,16.76
2022-08-12T01:47:50.054Z,16.76
2022-08-12T01:48:00.033Z,16.76
2022-08-12T01:48:10.201Z,16.76
2022-08-12T01:48:20.835Z,16.76
2022-08-12T01:48:30.965Z,16.76
2022-08-12T01:48:42.034Z,16.76
2022-08-12T01:48:50.095Z,16.76
2022-08-12T01:49:00.395Z,16.78
2022-08-12T01:49:10.919Z,16.76
2022-08-12T01:49:21.767Z,16.76
2022-08-12T01:49:30.887Z,16.76
2022-08-12T01:49:40.914Z,16.77
2022-08-12T01:49:50.835Z,16.76
2022-08-12T01:50:00.997Z,16.77
2022-08-12T01:50:10.004Z,16.76
2022-08-12T01:50:20.962Z,16.76
2022-08-12T01:50:29.995Z,16.75
2022-08-12T01:50:43.205Z,16.75
2022-08-12T01:50:50.036Z,16.71
2022-08-12T01:51:00.626Z,16.73
2022-08-12T01:51:10.031Z,16.73
2022-08-12T01:52:04.570Z,16.73
2022-08-12T01:52:12.635Z,16.69
2022-08-12T01:52:15.666Z,16.69
2022-08-12T01:52:20.361Z,16.67
2022-08-12T01:52:21.352Z,16.68
2022-08-12T01:52:21.624Z,16.66
2022-08-12T01:52:22.756Z,16.66
2022-08-12T01:52:31.963Z,16.65
2022-08-12T01:52:42.099Z,16.68
2022-08-12T01:52:51.465Z,16.68
2022-08-12T01:52:59.995Z,16.70
2022-08-12T01:53:10.028Z,16.71
2022-08-12T01:53:20.065Z,16.71
2022-08-12T01:53:29.986Z,16.71
2022-08-12T01:53:50.337Z,16.66
2022-08-12T01:53:51.241Z,16.64
2022-08-12T01:54:01.083Z,16.68
2022-08-12T01:54:13.057Z,16.68
2022-08-12T01:54:21.067Z,16.67
2022-08-12T01:54:31.087Z,16.69
2022-08-12T01:54:43.026Z,16.68
2022-08-12T01:54:53.048Z,16.68
2022-08-12T01:55:02.516Z,16.68
2022-08-12T01:55:11.118Z,16.68
2022-08-12T01:55:23.006Z,16.68
2022-08-12T01:55:31.826Z,16.68
2022-08-12T01:55:41.099Z,16.69
2022-08-12T01:55:53.018Z,16.69
2022-08-12T01:56:03.003Z,16.68
2022-08-12T01:56:13.000Z,16.68
2022-08-12T01:56:21.084Z,16.68
2022-08-12T01:56:31.244Z,16.70
2022-08-12T01:56:41.978Z,16.68
2022-08-12T01:56:53.012Z,16.68
2022-08-12T01:57:01.044Z,16.68
2022-08-12T01:57:11.093Z,16.70
2022-08-12T01:57:57.680Z,16.64
2022-08-12T01:57:58.109Z,16.69
2022-08-12T01:57:58.894Z,16.63
2022-08-12T01:57:58.948Z,16.62
2022-08-12T01:58:06.484Z,16.60
2022-08-12T01:58:14.558Z,16.65
2022-08-12T01:58:24.626Z,16.67
2022-08-12T01:58:35.359Z,16.67
2022-08-12T01:58:46.456Z,16.67
2022-08-12T01:58:56.456Z,16.68
2022-08-12T01:59:04.736Z,16.68
2022-08-12T01:59:14.498Z,16.69
2022-08-12T01:59:24.524Z,16.68
2022-08-12T01:59:35.325Z,16.69
2022-08-12T01:59:44.517Z,16.69
2022-08-12T01:59:56.495Z,16.69
2022-08-12T02:00:05.912Z,16.67
2022-08-12T02:00:15.954Z,16.69
2022-08-12T02:00:36.022Z,16.69
2022-08-12T02:00:43.375Z,16.65
2022-08-12T02:00:56.285Z,16.63
2022-08-12T02:00:56.719Z,16.62
2022-08-12T02:01:07.533Z,16.66
2022-08-12T02:01:16.714Z,16.65
2022-08-12T02:01:28.597Z,16.67
2022-08-12T02:01:38.631Z,16.66
2022-08-12T02:01:46.692Z,16.66
2022-08-12T02:01:56.768Z,16.67
2022-08-12T02:02:06.663Z,16.67
2022-08-12T02:02:18.596Z,16.66
2022-08-12T02:02:28.081Z,16.66
2022-08-12T02:02:38.645Z,16.65
2022-08-12T02:02:46.627Z,16.65
2022-08-12T02:02:58.596Z,16.66
2022-08-12T02:03:06.623Z,16.63
2022-08-12T02:03:18.559Z,16.64
2022-08-12T02:03:26.689Z,16.63
2022-08-12T02:03:38.555Z,16.64
2022-08-12T02:03:48.557Z,16.62
2022-08-12T02:03:58.056Z,16.62
2022-08-12T02:04:08.566Z,16.62
2022-08-12T02:04:18.556Z,16.60
2022-08-12T02:04:26.598Z,16.61
2022-08-12T02:04:38.566Z,16.62
2022-08-12T02:04:48.567Z,16.60
2022-08-12T02:04:58.548Z,16.60
2022-08-12T02:05:08.557Z,16.60
2022-08-12T02:05:18.546Z,16.60
2022-08-12T02:05:28.555Z,16.59
2022-08-12T02:05:37.827Z,16.56
2022-08-12T02:05:49.789Z,16.58
2022-08-12T02:05:57.797Z,16.56
2022-08-12T02:06:07.817Z,16.58
2022-08-12T02:06:17.827Z,16.57
2022-08-12T02:06:29.778Z,16.57
2022-08-12T02:06:37.811Z,16.56
2022-08-12T02:06:47.827Z,16.58
2022-08-12T02:06:59.760Z,16.58
2022-08-12T02:07:07.799Z,16.56
2022-08-12T02:07:19.757Z,16.57
2022-08-12T02:07:29.247Z,16.54
2022-08-12T02:07:37.808Z,16.55
2022-08-12T02:07:49.817Z,16.55
2022-08-12T02:07:59.727Z,16.51
2022-08-12T02:08:07.792Z,16.52
2022-08-12T02:08:17.809Z,16.55
2022-08-12T02:08:28.787Z,16.54
2022-08-12T02:08:37.797Z,16.55
2022-08-12T02:08:47.847Z,16.56
2022-08-12T02:08:57.779Z,16.52
2022-08-12T02:09:07.878Z,16.54
2022-08-12T02:09:19.718Z,16.56
2022-08-12T02:09:29.240Z,16.55
2022-08-12T02:09:39.731Z,16.56